Time;durP1;ratioP1;P1;durP2;ratioP2;P2;SDS_P1;SDS_P2;PMS_P1;PMS_P2;Temp;Humidity;BMP_temperature;BMP_pressure;BME280_temperature;BME280_humidity;BME280_pressure;Samples;Min_cycle;Max_cycle;Signal;HPM_P1;HPM_P2
2023/04/08 00:01:51;;;;;;;18.92;13.57;;;10.50;99.90;;;;;;4168993;28;20048;-67
2023/04/08 00:03:51;;;;;;;21.42;14.90;;;10.40;99.90;;;;;;4165592;28;20037;-67
2023/04/08 00:05:52;;;;;;;20.63;14.57;;;10.50;99.90;;;;;;4169306;28;20416;-67
2023/04/08 00:07:52;;;;;;;24.15;15.88;;;10.40;99.90;;;;;;4168158;28;20048;-67
2023/04/08 00:09:53;;;;;;;22.13;14.63;;;10.50;99.90;;;;;;4170505;28;20021;-67
2023/04/08 00:11:55;;;;;;;20.13;14.02;;;10.50;99.90;;;;;;4165976;28;20488;-67
2023/04/08 00:13:56;;;;;;;20.65;15.00;;;10.50;99.90;;;;;;4172347;28;20108;-67
2023/04/08 00:15:57;;;;;;;20.25;14.00;;;10.50;99.90;;;;;;4174601;28;20036;-67
2023/04/08 00:17:57;;;;;;;21.08;14.68;;;10.50;99.90;;;;;;4169145;28;20033;-66
2023/04/08 00:19:58;;;;;;;18.30;13.70;;;10.50;99.90;;;;;;4169702;28;20094;-67
2023/04/08 00:21:58;;;;;;;21.45;14.07;;;10.50;99.90;;;;;;4164356;28;20358;-66
2023/04/08 00:23:59;;;;;;;19.92;14.18;;;10.50;99.90;;;;;;4170622;28;20028;-67
2023/04/08 00:26:00;;;;;;;19.50;15.10;;;10.50;99.90;;;;;;4169766;28;20503;-66
2023/04/08 00:28:00;;;;;;;18.13;13.90;;;10.50;99.90;;;;;;4169324;28;20099;-66
2023/04/08 00:30:02;;;;;;;16.80;13.73;;;10.50;99.90;;;;;;4163046;28;20041;-68
2023/04/08 00:32:03;;;;;;;22.05;14.23;;;10.50;99.90;;;;;;4165949;28;20037;-67
2023/04/08 00:34:03;;;;;;;20.17;14.63;;;10.50;99.90;;;;;;4169574;28;20485;-67
2023/04/08 00:36:04;;;;;;;22.33;14.38;;;10.50;99.90;;;;;;4170762;28;20033;-67
2023/04/08 00:38:06;;;;;;;19.92;13.90;;;10.60;99.90;;;;;;4166022;28;20045;-67
2023/04/08 00:40:07;;;;;;;17.88;13.20;;;10.60;99.90;;;;;;4167634;28;20037;-67
2023/04/08 00:42:08;;;;;;;18.30;13.90;;;10.60;99.90;;;;;;4167703;28;20053;-66
2023/04/08 00:44:09;;;;;;;21.80;16.17;;;10.60;99.90;;;;;;4168548;28;20082;-66
2023/04/08 00:46:10;;;;;;;22.88;15.63;;;10.60;99.90;;;;;;4168725;28;20435;-67
2023/04/08 00:48:10;;;;;;;17.65;13.50;;;10.60;99.90;;;;;;4166660;28;20376;-67
2023/04/08 00:50:11;;;;;;;23.83;14.73;;;10.60;99.90;;;;;;4167797;28;20068;-68
2023/04/08 00:52:12;;;;;;;24.60;15.07;;;10.60;99.90;;;;;;4169875;28;20026;-66
2023/04/08 00:54:12;;;;;;;23.38;15.70;;;10.60;99.90;;;;;;4170981;28;20056;-66
2023/04/08 00:56:13;;;;;;;22.95;14.68;;;10.60;99.90;;;;;;4149027;28;20030;-68
2023/04/08 00:58:14;;;;;;;19.90;15.02;;;10.60;99.90;;;;;;4147415;28;20042;-67
2023/04/08 01:00:15;;;;;;;21.65;14.85;;;10.60;99.90;;;;;;4160427;28;20034;-66
2023/04/08 01:02:43;;;;;;;24.60;15.75;;;10.60;99.90;;;;;;4148146;28;20030;-67
2023/04/08 01:05:07;;;;;;;17.70;14.32;;;10.60;99.90;;;;;;4148277;28;20057;-67
2023/04/08 01:07:12;;;;;;;21.85;15.23;;;10.50;99.90;;;;;;4166420;28;20065;-67
2023/04/08 01:09:16;;;;;;;19.60;14.85;;;10.60;99.90;;;;;;4169069;28;20037;-67
2023/04/08 01:11:18;;;;;;;22.20;15.38;;;10.60;99.90;;;;;;4174090;28;20477;-67
2023/04/08 01:13:22;;;;;;;18.58;14.07;;;10.60;99.90;;;;;;4169400;28;20026;-67
2023/04/08 01:15:25;;;;;;;22.55;15.07;;;10.60;99.90;;;;;;4171527;28;21551;-66
2023/04/08 01:17:27;;;;;;;21.98;15.50;;;10.60;99.90;;;;;;4176083;28;20025;-67
2023/04/08 01:19:31;;;;;;;20.97;15.33;;;10.60;99.90;;;;;;4174373;28;20037;-66
2023/04/08 01:21:32;;;;;;;21.60;15.35;;;10.60;99.90;;;;;;4172619;28;21214;-67
2023/04/08 01:23:51;;;;;;;21.60;14.15;;;10.60;99.90;;;;;;4172151;28;20033;-67
2023/04/08 01:25:53;;;;;;;23.50;14.73;;;10.60;99.90;;;;;;4172912;28;20470;-67
2023/04/08 01:27:57;;;;;;;20.17;15.43;;;10.60;99.90;;;;;;4171047;28;20045;-67
2023/04/08 01:30:00;;;;;;;20.85;14.38;;;10.60;99.90;;;;;;4168323;28;20080;-67
2023/04/08 01:32:02;;;;;;;19.02;13.90;;;10.60;99.90;;;;;;4173064;28;20037;-67
2023/04/08 01:34:05;;;;;;;19.50;14.30;;;10.60;99.90;;;;;;4171786;28;20029;-67
2023/04/08 01:36:06;;;;;;;19.05;15.02;;;10.60;99.90;;;;;;4168745;28;20034;-67
2023/04/08 01:38:27;;;;;;;24.10;15.35;;;10.60;99.90;;;;;;4164344;28;20061;-67
2023/04/08 01:40:28;;;;;;;24.43;16.13;;;10.60;99.90;;;;;;4172895;28;20129;-67
2023/04/08 01:42:29;;;;;;;23.10;15.88;;;10.60;99.90;;;;;;4173518;28;20743;-67
2023/04/08 01:44:32;;;;;;;20.05;14.77;;;10.60;99.90;;;;;;4179536;28;20036;-66
2023/04/08 01:46:33;;;;;;;22.05;15.60;;;10.60;99.90;;;;;;4173110;28;20112;-67
2023/04/08 01:48:35;;;;;;;19.77;14.25;;;10.60;99.90;;;;;;4180513;28;20062;-67
2023/04/08 01:50:36;;;;;;;21.42;15.48;;;10.60;99.90;;;;;;4174081;28;20052;-68
2023/04/08 01:52:39;;;;;;;22.50;15.43;;;10.60;99.90;;;;;;4163724;28;20037;-66
2023/04/08 01:54:39;;;;;;;;;;;10.60;99.90;;;;;;4175194;28;20033;-66
2023/04/08 01:56:43;;;;;;;21.25;15.23;;;10.60;99.90;;;;;;4180013;28;19962;-66
2023/04/08 01:58:51;;;;;;;20.48;14.88;;;10.60;99.90;;;;;;4173804;28;20032;-67
2023/04/08 02:00:55;;;;;;;21.08;14.85;;;10.60;99.90;;;;;;4179139;28;20414;-67
2023/04/08 02:02:57;;;;;;;20.23;15.18;;;10.60;99.90;;;;;;4175292;28;20092;-67
2023/04/08 02:04:58;;;;;;;17.25;13.70;;;10.60;99.90;;;;;;4180721;28;20116;-67
2023/04/08 02:06:59;;;;;;;22.63;15.57;;;10.60;99.90;;;;;;4167456;28;20495;-66
2023/04/08 02:09:00;;;;;;;22.00;15.57;;;10.60;99.90;;;;;;4170309;28;20091;-66
2023/04/08 02:11:02;;;;;;;21.40;16.30;;;10.60;99.90;;;;;;4180259;28;20032;-67
2023/04/08 02:13:03;;;;;;;19.10;15.20;;;10.50;99.90;;;;;;4166416;28;20029;-66
2023/04/08 02:15:04;;;;;;;22.00;14.95;;;10.50;99.90;;;;;;4174075;28;20577;-67
2023/04/08 02:17:10;;;;;;;19.70;15.52;;;10.60;99.90;;;;;;4179664;28;20063;-67
2023/04/08 02:19:18;;;;;;;19.48;15.48;;;10.50;99.90;;;;;;4180442;28;20036;-66
2023/04/08 02:21:25;;;;;;;18.70;14.32;;;10.50;99.90;;;;;;4174303;28;20036;-67
2023/04/08 02:23:28;;;;;;;18.08;14.23;;;10.50;99.90;;;;;;4177207;28;20045;-66
2023/04/08 02:25:30;;;;;;;20.55;14.77;;;10.50;99.90;;;;;;4173516;28;20124;-66
2023/04/08 02:27:34;;;;;;;21.20;14.07;;;10.50;99.90;;;;;;4179442;28;20476;-67
2023/04/08 02:29:38;;;;;;;22.25;15.98;;;10.50;99.90;;;;;;4179699;28;20033;-66
2023/04/08 02:31:41;;;;;;;20.95;15.30;;;10.50;99.90;;;;;;4179317;28;20017;-66
2023/04/08 02:33:42;;;;;;;23.45;16.25;;;10.50;99.90;;;;;;4174777;28;20060;-66
2023/04/08 02:35:44;;;;;;;21.93;15.47;;;10.50;99.90;;;;;;4168843;28;20029;-66
2023/04/08 02:37:49;;;;;;;18.73;13.50;;;10.50;99.90;;;;;;4179941;28;20048;-66
2023/04/08 02:39:50;;;;;;;17.58;13.63;;;10.50;99.90;;;;;;4179602;28;20044;-66
2023/04/08 02:41:50;;;;;;;18.55;13.00;;;10.50;99.90;;;;;;4167281;28;20041;-66
2023/04/08 02:43:54;;;;;;;16.33;13.10;;;10.40;99.90;;;;;;4170856;28;20041;-66
2023/04/08 02:45:54;;;;;;;18.17;13.80;;;10.40;99.90;;;;;;4174379;28;20095;-66
2023/04/08 02:47:55;;;;;;;18.38;13.52;;;10.40;99.90;;;;;;4169196;28;20041;-67
2023/04/08 02:49:56;;;;;;;20.30;14.65;;;10.40;99.90;;;;;;4177860;28;20044;-66
2023/04/08 02:51:56;;;;;;;22.05;16.38;;;10.40;99.90;;;;;;4170377;28;20076;-66
2023/04/08 02:53:57;;;;;;;20.80;15.68;;;10.40;99.90;;;;;;4172530;28;20072;-66
2023/04/08 02:55:57;;;;;;;19.67;15.52;;;10.40;99.90;;;;;;4163136;28;20034;-67
2023/04/08 02:57:58;;;;;;;21.27;14.73;;;10.40;99.90;;;;;;4163279;28;20502;-67
2023/04/08 02:59:58;;;;;;;20.60;15.38;;;10.30;99.90;;;;;;4178029;28;20049;-66
2023/04/08 03:01:59;;;;;;;21.40;15.75;;;10.40;99.90;;;;;;4173614;28;20037;-67
2023/04/08 03:04:00;;;;;;;20.65;15.30;;;10.30;99.90;;;;;;4170523;28;20099;-66
2023/04/08 03:06:00;;;;;;;21.40;15.82;;;10.30;99.90;;;;;;4162243;28;20385;-66
2023/04/08 03:08:01;;;;;;;25.00;17.67;;;10.30;99.90;;;;;;4163631;28;20045;-66
2023/04/08 03:10:02;;;;;;;23.98;17.65;;;10.30;99.90;;;;;;4179586;28;20512;-67
2023/04/08 03:12:03;;;;;;;23.00;16.77;;;10.20;99.90;;;;;;4172964;28;20041;-67
2023/04/08 03:14:03;;;;;;;20.00;14.80;;;10.20;99.90;;;;;;4179419;28;20033;-67
2023/04/08 03:16:04;;;;;;;23.50;15.90;;;10.20;99.90;;;;;;4178717;28;20043;-66
2023/04/08 03:18:05;;;;;;;21.77;16.33;;;10.20;99.90;;;;;;4174172;28;20108;-66
2023/04/08 03:20:06;;;;;;;18.23;13.85;;;10.20;99.90;;;;;;4166093;28;20033;-67
2023/04/08 03:22:08;;;;;;;17.67;14.00;;;10.20;99.90;;;;;;4170994;28;20068;-67
2023/04/08 03:24:09;;;;;;;20.33;15.27;;;10.10;99.90;;;;;;4179409;28;20029;-67
2023/04/08 03:26:10;;;;;;;18.13;14.07;;;10.10;99.90;;;;;;4178680;28;20538;-67
2023/04/08 03:28:10;;;;;;;17.50;13.25;;;10.10;99.90;;;;;;4178350;28;20029;-67
2023/04/08 03:30:11;;;;;;;18.08;13.68;;;10.10;99.90;;;;;;4178451;28;20094;-67
2023/04/08 03:32:12;;;;;;;17.55;13.63;;;10.10;99.90;;;;;;4179235;28;20037;-66
2023/04/08 03:34:12;;;;;;;18.98;14.75;;;10.10;99.90;;;;;;4169447;28;20115;-67
2023/04/08 03:36:13;;;;;;;17.40;13.95;;;10.00;99.90;;;;;;4167565;28;20468;-66
2023/04/08 03:38:13;;;;;;;18.63;14.18;;;10.00;99.90;;;;;;4177143;28;20051;-67
2023/04/08 03:40:14;;;;;;;19.48;14.57;;;10.10;99.90;;;;;;4164199;28;20029;-67
2023/04/08 03:42:15;;;;;;;22.63;17.55;;;10.00;99.90;;;;;;4171308;28;20102;-66
2023/04/08 03:44:16;;;;;;;20.38;15.70;;;10.00;99.90;;;;;;4179042;28;20037;-66
2023/04/08 03:46:16;;;;;;;21.75;16.40;;;10.00;99.90;;;;;;4177347;28;20480;-66
2023/04/08 03:48:17;;;;;;;23.38;17.00;;;10.00;99.90;;;;;;4173168;28;20037;-66
2023/04/08 03:50:17;;;;;;;23.67;15.93;;;10.00;99.90;;;;;;4178331;28;20033;-66
2023/04/08 03:52:18;;;;;;;18.63;14.60;;;10.00;99.90;;;;;;4175316;28;20102;-66
2023/04/08 03:54:18;;;;;;;22.67;15.80;;;9.90;99.90;;;;;;4178509;28;20415;-66
2023/04/08 03:56:19;;;;;;;20.88;16.38;;;9.90;99.90;;;;;;4167734;28;20492;-67
2023/04/08 03:58:20;;;;;;;22.50;17.08;;;9.90;99.90;;;;;;4170119;28;20033;-66
2023/04/08 04:00:20;;;;;;;17.75;13.65;;;9.90;99.90;;;;;;4169711;28;20033;-67
2023/04/08 04:02:21;;;;;;;16.48;12.57;;;9.90;99.90;;;;;;4163233;28;20038;-66
2023/04/08 04:04:21;;;;;;;14.68;12.07;;;9.80;99.90;;;;;;4166689;28;20056;-67
2023/04/08 04:06:22;;;;;;;14.55;11.57;;;9.80;99.90;;;;;;4177454;28;20079;-67
2023/04/08 04:08:23;;;;;;;15.25;12.73;;;9.80;99.90;;;;;;4161803;28;20037;-66
2023/04/08 04:10:23;;;;;;;15.73;12.25;;;9.80;99.90;;;;;;4161718;28;20107;-66
2023/04/08 04:12:24;;;;;;;14.00;11.63;;;9.80;99.90;;;;;;4172233;28;20493;-66
2023/04/08 04:14:25;;;;;;;14.27;11.68;;;9.80;99.90;;;;;;4178652;28;20032;-66
2023/04/08 04:16:25;;;;;;;14.30;11.50;;;9.80;99.90;;;;;;4170195;28;20021;-66
2023/04/08 04:18:26;;;;;;;17.58;13.13;;;9.80;99.90;;;;;;4177889;28;20215;-66
2023/04/08 04:20:29;;;;;;;17.60;13.25;;;9.70;99.90;;;;;;4172459;28;20068;-66
2023/04/08 04:22:29;;;;;;;16.35;13.45;;;9.70;99.90;;;;;;4164321;28;20036;-66
2023/04/08 04:24:30;;;;;;;13.77;11.52;;;9.60;99.90;;;;;;4162445;28;20385;-66
2023/04/08 04:26:30;;;;;;;13.52;11.00;;;9.60;99.90;;;;;;4163182;28;20033;-67
2023/04/08 04:28:31;;;;;;;15.07;11.55;;;9.60;99.90;;;;;;4168105;28;20040;-66
2023/04/08 04:30:31;;;;;;;18.58;14.27;;;9.60;99.90;;;;;;4177556;28;20033;-67
2023/04/08 04:32:32;;;;;;;14.95;12.30;;;9.50;99.90;;;;;;4173159;28;20033;-66
2023/04/08 04:34:32;;;;;;;15.07;12.57;;;9.50;99.90;;;;;;4178895;28;20048;-66
2023/04/08 04:36:33;;;;;;;15.98;12.90;;;9.50;99.90;;;;;;4171815;28;20040;-67
2023/04/08 04:38:34;;;;;;;13.05;11.07;;;9.50;99.90;;;;;;4162072;28;20045;-67
2023/04/08 04:40:35;;;;;;;14.30;12.13;;;9.50;99.90;;;;;;4166351;28;20029;-66
2023/04/08 04:42:35;;;;;;;13.50;11.55;;;9.50;99.90;;;;;;4175137;28;20033;-67
2023/04/08 04:44:36;;;;;;;14.07;11.43;;;9.60;99.90;;;;;;4172622;28;20044;-66
2023/04/08 04:46:37;;;;;;;13.13;10.48;;;9.50;99.90;;;;;;4172747;28;20029;-66
2023/04/08 04:48:37;;;;;;;12.60;10.75;;;9.50;99.90;;;;;;4170514;28;20033;-65
2023/04/08 04:50:38;;;;;;;13.63;11.23;;;9.50;99.90;;;;;;4170413;28;20041;-67
2023/04/08 04:52:39;;;;;;;13.73;11.45;;;9.50;99.90;;;;;;4170135;28;20128;-66
2023/04/08 04:54:40;;;;;;;12.85;10.80;;;9.50;99.90;;;;;;4174044;28;20041;-66
2023/04/08 04:56:40;;;;;;;13.88;11.25;;;9.50;99.90;;;;;;4168659;28;20141;-67
2023/04/08 04:58:41;;;;;;;12.43;10.43;;;9.50;99.90;;;;;;4170219;28;20061;-66
2023/04/08 05:00:41;;;;;;;13.43;11.05;;;9.50;99.90;;;;;;4171929;28;20029;-67
2023/04/08 05:02:42;;;;;;;13.40;11.57;;;9.50;99.90;;;;;;4166656;28;20435;-66
2023/04/08 05:04:42;;;;;;;12.43;10.82;;;9.50;99.90;;;;;;4167870;28;20045;-66
2023/04/08 05:06:43;;;;;;;17.88;12.07;;;9.50;99.90;;;;;;4163755;28;20098;-66
2023/04/08 05:08:44;;;;;;;15.43;12.40;;;9.50;99.90;;;;;;4173281;28;20033;-66
2023/04/08 05:10:44;;;;;;;14.50;12.68;;;9.50;99.90;;;;;;4168778;28;20033;-66
2023/04/08 05:12:45;;;;;;;13.80;11.60;;;9.50;99.90;;;;;;4168484;28;20088;-65
2023/04/08 05:14:46;;;;;;;18.90;13.20;;;9.40;99.90;;;;;;4169197;28;20108;-65
2023/04/08 05:16:46;;;;;;;13.50;11.15;;;9.40;99.90;;;;;;4168864;28;20065;-66
2023/04/08 05:18:47;;;;;;;12.90;10.32;;;9.40;99.90;;;;;;4174442;28;20026;-66
2023/04/08 05:20:47;;;;;;;16.20;12.00;;;9.30;99.90;;;;;;4167062;28;20099;-66
2023/04/08 05:22:48;;;;;;;15.15;12.55;;;9.30;99.90;;;;;;4167875;28;20040;-66
2023/04/08 05:24:49;;;;;;;13.30;11.55;;;9.30;99.90;;;;;;4173296;28;20437;-66
2023/04/08 05:26:52;;;;;;;11.63;9.75;;;9.20;99.90;;;;;;4167338;28;20037;-66
2023/04/08 05:28:52;;;;;;;;;;;9.20;99.90;;;;;;4175823;28;20128;-66
2023/04/08 05:30:53;;;;;;;13.65;11.23;;;9.20;99.90;;;;;;4169630;28;19920;-66
2023/04/08 05:32:54;;;;;;;11.70;9.93;;;9.20;99.90;;;;;;4169424;28;20042;-66
2023/04/08 05:34:54;;;;;;;13.77;10.63;;;9.20;99.90;;;;;;4167265;28;20045;-66
2023/04/08 05:36:55;;;;;;;11.75;10.02;;;9.20;99.90;;;;;;4167994;28;20042;-66
2023/04/08 05:38:56;;;;;;;13.93;10.82;;;9.20;99.90;;;;;;4169645;28;20045;-66
2023/04/08 05:40:57;;;;;;;12.20;10.57;;;9.20;99.90;;;;;;4170559;28;20040;-66
2023/04/08 05:42:57;;;;;;;12.48;10.65;;;9.10;99.90;;;;;;4166517;28;20463;-66
2023/04/08 05:44:58;;;;;;;11.45;10.02;;;9.20;99.90;;;;;;4172139;28;20041;-66
2023/04/08 05:46:59;;;;;;;10.95;9.55;;;9.20;99.90;;;;;;4174084;28;20074;-66
2023/04/08 05:48:59;;;;;;;12.07;10.13;;;9.20;99.90;;;;;;4167530;28;20634;-66
2023/04/08 05:51:00;;;;;;;11.82;9.75;;;9.10;99.90;;;;;;4167710;28;20026;-66
2023/04/08 05:53:01;;;;;;;11.35;9.25;;;9.10;99.90;;;;;;4167367;28;20040;-66
2023/04/08 05:55:01;;;;;;;10.70;8.82;;;9.20;99.90;;;;;;4166571;28;20049;-66
2023/04/08 05:57:02;;;;;;;11.10;9.68;;;9.20;99.90;;;;;;4166593;28;20067;-66
2023/04/08 05:59:02;;;;;;;12.30;10.15;;;9.20;99.90;;;;;;4172361;28;20061;-66
2023/04/08 06:01:05;;;;;;;10.30;8.77;;;9.10;99.90;;;;;;4166952;28;20034;-66
2023/04/08 06:03:05;;;;;;;10.15;8.80;;;9.10;99.90;;;;;;4168667;28;20451;-66
2023/04/08 06:05:06;;;;;;;9.80;8.38;;;9.10;99.90;;;;;;4171335;28;20117;-67
2023/04/08 06:07:07;;;;;;;11.07;9.50;;;9.10;99.90;;;;;;4164635;28;20426;-66
2023/04/08 06:09:11;;;;;;;8.95;8.02;;;9.10;99.90;;;;;;4167548;28;20034;-69
2023/04/08 06:11:11;;;;;;;9.27;7.95;;;9.00;99.90;;;;;;4169780;28;21196;-66
2023/04/08 06:13:12;;;;;;;8.63;7.45;;;9.10;99.90;;;;;;4173382;28;20041;-66
2023/04/08 06:15:12;;;;;;;8.90;7.82;;;9.10;99.90;;;;;;4168709;28;20037;-66
2023/04/08 06:17:13;;;;;;;10.48;7.60;;;9.10;99.90;;;;;;4171722;28;20056;-65
2023/04/08 06:19:14;;;;;;;8.85;7.65;;;9.00;99.90;;;;;;4170609;28;20064;-67
2023/04/08 06:21:14;;;;;;;8.70;7.78;;;9.00;99.90;;;;;;4173180;28;20036;-66
2023/04/08 06:23:15;;;;;;;8.57;7.45;;;9.10;99.90;;;;;;4170193;28;20037;-66
2023/04/08 06:25:16;;;;;;;10.18;8.63;;;9.10;99.90;;;;;;4171152;28;20043;-66
2023/04/08 06:27:17;;;;;;;12.07;9.50;;;9.10;99.90;;;;;;4172390;28;20032;-66
2023/04/08 06:29:19;;;;;;;10.40;8.93;;;9.10;99.90;;;;;;4170023;28;20496;-66
2023/04/08 06:31:20;;;;;;;10.85;9.07;;;9.10;99.90;;;;;;4168334;28;20025;-66
2023/04/08 06:33:21;;;;;;;10.98;8.95;;;9.10;99.90;;;;;;4169158;28;20029;-66
2023/04/08 06:35:21;;;;;;;10.40;9.00;;;9.10;99.90;;;;;;4169739;28;20125;-66
2023/04/08 06:37:23;;;;;;;9.73;8.50;;;9.10;99.90;;;;;;4167833;28;20076;-66
2023/04/08 06:39:23;;;;;;;10.80;9.52;;;9.00;99.90;;;;;;4166876;28;20044;-66
2023/04/08 06:41:24;;;;;;;11.60;9.90;;;9.00;99.90;;;;;;4169322;28;20059;-66
2023/04/08 06:43:25;;;;;;;12.77;9.25;;;9.00;99.90;;;;;;4166769;28;20120;-66
2023/04/08 06:45:26;;;;;;;11.63;9.70;;;9.00;99.90;;;;;;4169041;28;20496;-66
2023/04/08 06:47:26;;;;;;;10.23;9.13;;;9.00;99.90;;;;;;4170173;28;20043;-66
2023/04/08 06:49:27;;;;;;;10.88;9.10;;;9.00;99.90;;;;;;4169585;28;20036;-66
2023/04/08 06:51:27;;;;;;;12.45;9.77;;;9.00;99.90;;;;;;4169128;28;20021;-67
2023/04/08 06:53:29;;;;;;;12.23;9.57;;;9.00;99.90;;;;;;4172326;28;21787;-66
2023/04/08 06:55:30;;;;;;;11.45;9.57;;;9.00;99.90;;;;;;4166020;28;20029;-66
2023/04/08 06:57:31;;;;;;;12.40;10.40;;;9.00;99.90;;;;;;4167510;28;20087;-66
2023/04/08 06:59:31;;;;;;;15.05;12.52;;;9.00;99.90;;;;;;4164441;28;20052;-66
2023/04/08 07:01:32;;;;;;;12.85;10.82;;;8.90;99.90;;;;;;4172936;28;20090;-66
2023/04/08 07:03:32;;;;;;;14.63;11.63;;;8.90;99.90;;;;;;4169220;28;20033;-66
2023/04/08 07:05:37;;;;;;;12.88;10.55;;;8.90;99.90;;;;;;4164605;28;20044;-66
2023/04/08 07:07:38;;;;;;;12.07;9.85;;;8.90;99.90;;;;;;4173475;28;20032;-66
2023/04/08 07:09:40;;;;;;;16.60;12.07;;;8.90;99.90;;;;;;4167684;28;20056;-67
2023/04/08 07:11:40;;;;;;;12.27;10.55;;;8.90;99.90;;;;;;4169742;28;20029;-66
2023/04/08 07:13:42;;;;;;;13.00;11.02;;;8.90;99.90;;;;;;4170010;28;20104;-67
2023/04/08 07:15:42;;;;;;;13.40;11.25;;;8.90;99.90;;;;;;4166036;28;20388;-67
2023/04/08 07:17:43;;;;;;;13.40;10.43;;;8.80;99.90;;;;;;4169200;28;20033;-67
2023/04/08 07:19:44;;;;;;;13.02;10.95;;;8.70;99.90;;;;;;4163958;28;20392;-67
2023/04/08 07:21:44;;;;;;;11.88;9.77;;;8.80;99.90;;;;;;4169026;28;20515;-67
2023/04/08 07:23:45;;;;;;;10.00;8.73;;;8.80;99.90;;;;;;4169484;28;20480;-66
2023/04/08 07:25:47;;;;;;;13.60;11.18;;;8.80;99.90;;;;;;4172643;28;20431;-67
2023/04/08 07:27:47;;;;;;;13.83;11.17;;;8.80;99.90;;;;;;4169599;28;20397;-66
2023/04/08 07:29:53;;;;;;;13.93;11.40;;;8.80;99.90;;;;;;4165756;28;20109;-66
2023/04/08 07:31:53;;;;;;;12.73;11.00;;;8.80;99.90;;;;;;4163214;28;20112;-66
2023/04/08 07:33:54;;;;;;;13.13;10.68;;;8.70;99.90;;;;;;4170883;28;20527;-67
2023/04/08 07:35:54;;;;;;;12.18;9.77;;;8.80;99.90;;;;;;4174346;28;20033;-66
2023/04/08 07:37:56;;;;;;;12.75;10.25;;;8.80;99.90;;;;;;4173494;28;20136;-66
2023/04/08 07:39:57;;;;;;;12.90;10.43;;;8.90;99.90;;;;;;4163869;28;20099;-66
2023/04/08 07:41:57;;;;;;;21.45;10.48;;;8.90;99.90;;;;;;4177759;28;20037;-67
2023/04/08 07:43:58;;;;;;;13.18;11.23;;;8.90;99.90;;;;;;4179221;28;20115;-66
2023/04/08 07:46:03;;;;;;;14.32;11.35;;;8.90;99.90;;;;;;4170756;28;20046;-67
2023/04/08 07:48:04;;;;;;;12.38;10.38;;;8.90;99.90;;;;;;4163014;28;20099;-66
2023/04/08 07:50:05;;;;;;;13.57;11.38;;;8.90;99.90;;;;;;4162825;28;20033;-68
2023/04/08 07:52:06;;;;;;;13.30;11.02;;;8.90;99.90;;;;;;4162764;28;20057;-67
2023/04/08 07:54:06;;;;;;;15.38;12.30;;;8.90;99.90;;;;;;4174137;28;20491;-66
2023/04/08 07:56:12;;;;;;;11.45;9.63;;;9.00;99.90;;;;;;4178563;28;20427;-66
2023/04/08 07:58:12;;;;;;;13.27;10.43;;;9.00;99.90;;;;;;4179033;28;20116;-67
2023/04/08 08:00:19;;;;;;;13.02;10.55;;;9.10;99.90;;;;;;4178116;28;20029;-67
2023/04/08 08:02:20;;;;;;;13.48;10.38;;;9.10;99.90;;;;;;4179046;28;20083;-66
2023/04/08 08:04:20;;;;;;;14.50;10.95;;;9.10;99.90;;;;;;4179150;28;20033;-66
2023/04/08 08:06:21;;;;;;;11.23;9.45;;;9.20;99.90;;;;;;4177773;28;20028;-66
2023/04/08 08:08:22;;;;;;;12.88;10.57;;;9.20;99.90;;;;;;4179049;28;20060;-66
2023/04/08 08:10:22;;;;;;;12.73;9.93;;;9.20;99.90;;;;;;4178076;28;20033;-66
2023/04/08 08:12:23;;;;;;;12.88;10.00;;;9.30;99.90;;;;;;4178939;28;20087;-66
2023/04/08 08:14:25;;;;;;;11.73;9.50;;;9.30;99.90;;;;;;4177637;28;20032;-66
2023/04/08 08:16:30;;;;;;;10.27;8.55;;;9.30;99.90;;;;;;4172421;28;20094;-66
2023/04/08 08:18:32;;;;;;;11.15;9.02;;;9.30;99.90;;;;;;4170786;28;20434;-66
2023/04/08 08:20:34;;;;;;;11.35;9.68;;;9.30;99.90;;;;;;4178347;28;20032;-67
2023/04/08 08:22:35;;;;;;;;;;;9.20;99.90;;;;;;4177885;28;20032;-66
2023/04/08 08:24:36;;;;;;;12.50;10.35;;;9.30;99.90;;;;;;4167591;28;20416;-67
2023/04/08 08:26:37;;;;;;;12.60;9.63;;;9.30;99.90;;;;;;4163804;28;20045;-66
2023/04/08 08:28:38;;;;;;;12.73;10.60;;;9.20;99.90;;;;;;4164431;28;20033;-65
2023/04/08 08:30:39;;;;;;;12.35;10.60;;;9.20;99.90;;;;;;4166079;28;20117;-66
2023/04/08 08:32:39;;;;;;;14.05;9.98;;;9.20;99.90;;;;;;4162431;28;20504;-66
2023/04/08 08:34:40;;;;;;;16.08;11.77;;;9.20;99.90;;;;;;4162181;28;20082;-68
2023/04/08 08:36:41;;;;;;;13.90;10.45;;;9.30;99.90;;;;;;4161918;28;20437;-66
2023/04/08 08:38:41;;;;;;;11.57;9.45;;;9.20;99.90;;;;;;4162279;28;20049;-67
2023/04/08 08:40:43;;;;;;;14.43;9.73;;;9.30;99.90;;;;;;4161818;28;20493;-66
2023/04/08 08:42:51;;;;;;;10.75;9.43;;;9.30;99.90;;;;;;4162093;28;20473;-67
2023/04/08 08:44:53;;;;;;;11.63;9.52;;;9.30;99.90;;;;;;4160932;28;20061;-66
2023/04/08 08:46:54;;;;;;;12.07;9.67;;;9.30;99.90;;;;;;4161711;28;20473;-66
2023/04/08 08:48:55;;;;;;;13.32;10.00;;;9.30;99.90;;;;;;4162271;28;20045;-66
2023/04/08 08:50:56;;;;;;;12.02;9.77;;;9.30;99.90;;;;;;4161763;28;20484;-66
2023/04/08 08:52:57;;;;;;;12.68;10.00;;;9.40;99.90;;;;;;4162228;28;20033;-66
2023/04/08 08:54:58;;;;;;;12.80;9.70;;;9.30;99.90;;;;;;4161211;28;20047;-62
2023/04/08 08:56:59;;;;;;;12.35;10.40;;;9.40;99.90;;;;;;4161669;28;20496;-83
2023/04/08 08:58:59;;;;;;;13.07;10.57;;;9.40;99.90;;;;;;4161526;28;20032;-83
2023/04/08 09:01:00;;;;;;;12.27;10.15;;;9.40;99.90;;;;;;4162722;28;21159;-83
2023/04/08 09:03:21;;;;;;;14.60;11.55;;;9.50;99.90;;;;;;4160798;28;20056;-82
2023/04/08 09:05:22;;;;;;;15.63;11.82;;;9.60;99.90;;;;;;4160209;28;20039;-82
2023/04/08 09:07:25;;;;;;;15.18;12.60;;;9.50;99.90;;;;;;4163664;28;20120;-81
2023/04/08 09:09:26;;;;;;;15.10;11.40;;;9.60;99.90;;;;;;4162984;28;20045;-81
2023/04/08 09:11:26;;;;;;;13.15;10.48;;;9.60;99.90;;;;;;4161015;28;20449;-82
2023/04/08 09:13:34;;;;;;;13.73;10.63;;;9.70;99.90;;;;;;4165513;28;20025;-83
2023/04/08 09:15:35;;;;;;;16.75;12.77;;;9.70;99.90;;;;;;4164542;28;20400;-82
2023/04/08 09:17:38;;;;;;;13.35;10.90;;;9.80;99.90;;;;;;4164490;28;20033;-81
2023/04/08 09:19:59;;;;;;;14.70;11.50;;;9.90;99.90;;;;;;4164325;28;20473;-81
2023/04/08 09:22:08;;;;;;;13.75;11.25;;;10.00;99.90;;;;;;4161011;28;20044;-78
2023/04/08 09:24:25;;;;;;;14.63;11.98;;;10.00;99.90;;;;;;4164236;28;20037;-82
2023/04/08 09:26:26;;;;;;;17.17;12.63;;;10.20;99.90;;;;;;4165645;28;20030;-81
2023/04/08 09:28:27;;;;;;;16.50;12.80;;;10.30;99.90;;;;;;4171163;28;20156;-80
2023/04/08 09:30:27;;;;;;;16.10;13.13;;;10.40;99.90;;;;;;4170256;28;20134;-82
2023/04/08 09:32:46;;;;;;;17.13;12.65;;;10.40;99.90;;;;;;4169667;28;20040;-81
2023/04/08 09:34:47;;;;;;;13.13;11.23;;;10.40;99.90;;;;;;4163320;28;20453;-80
2023/04/08 09:36:50;;;;;;;17.30;13.60;;;10.50;99.90;;;;;;4168705;28;20041;-79
2023/04/08 09:38:51;;;;;;;12.77;10.63;;;10.50;99.90;;;;;;4171542;28;20045;-79
2023/04/08 09:40:53;;;;;;;12.95;10.90;;;10.50;99.90;;;;;;4166421;28;20121;-78
2023/04/08 09:42:55;;;;;;;13.82;10.43;;;10.60;99.90;;;;;;4168825;28;20396;-78
2023/04/08 09:44:57;;;;;;;;;;;10.60;99.90;;;;;;4169574;28;20037;-76
2023/04/08 09:47:09;;;;;;;11.00;9.68;;;10.70;99.90;;;;;;4170026;28;19909;-77
2023/04/08 09:49:17;;;;;;;13.55;10.48;;;10.60;99.90;;;;;;4166513;28;20037;-78
2023/04/08 09:51:18;;;;;;;13.35;10.10;;;10.60;99.90;;;;;;4168251;28;20385;-78
2023/04/08 09:53:35;;;;;;;16.75;12.80;;;10.60;99.90;;;;;;4166951;28;20057;-78
2023/04/08 09:55:37;;;;;;;14.05;11.82;;;10.70;99.90;;;;;;4171271;28;20099;-77
2023/04/08 09:57:49;;;;;;;14.95;12.35;;;10.70;99.90;;;;;;4169399;28;20443;-77
2023/04/08 10:00:04;;;;;;;16.90;13.02;;;10.80;99.90;;;;;;4168166;28;20033;-77
2023/04/08 10:02:10;;;;;;;16.17;12.23;;;10.60;99.90;;;;;;4166353;28;20037;-78
2023/04/08 10:04:18;;;;;;;14.60;10.43;;;10.60;99.90;;;;;;4168199;28;20523;-77
2023/04/08 10:06:20;;;;;;;12.77;11.13;;;10.70;99.90;;;;;;4169003;28;20025;-77
2023/04/08 10:08:23;;;;;;;14.40;11.68;;;10.70;99.90;;;;;;4169178;28;20036;-76
2023/04/08 10:10:25;;;;;;;16.77;12.45;;;10.80;99.90;;;;;;4165148;28;20033;-76
2023/04/08 10:12:25;;;;;;;17.15;12.75;;;10.80;99.90;;;;;;4168652;28;20285;-76
2023/04/08 10:14:27;;;;;;;15.63;12.40;;;11.00;99.90;;;;;;4168105;28;20041;-76
2023/04/08 10:16:28;;;;;;;16.38;12.45;;;11.00;99.90;;;;;;4167813;28;20041;-75
2023/04/08 10:18:30;;;;;;;14.75;12.07;;;11.10;99.90;;;;;;4165048;28;20041;-76
2023/04/08 10:20:36;;;;;;;14.73;10.82;;;11.20;99.90;;;;;;4163924;28;21985;-75
2023/04/08 10:22:37;;;;;;;15.57;12.05;;;11.30;99.90;;;;;;4165749;28;20057;-77
2023/04/08 10:24:37;;;;;;;17.13;12.73;;;11.40;99.90;;;;;;4166936;28;20127;-79
2023/04/08 10:26:42;;;;;;;15.18;11.68;;;11.30;99.90;;;;;;4167697;28;20120;-74